Time;durP1;ratioP1;P1;durP2;ratioP2;P2;SDS_P1;SDS_P2;PMS_P1;PMS_P2;Temp;Humidity;BMP_temperature;BMP_pressure;BME280_temperature;BME280_humidity;BME280_pressure;Samples;Min_cycle;Max_cycle;Signal;HPM_P1;HPM_P2
2022/10/21 00:00:17;;;;;;;3.75;2.22;;;;;;;4.92;76.55;101233.45;1709390;82;21153;-59
2022/10/21 00:02:49;;;;;;;4.75;2.33;;;;;;;4.88;76.65;101236.58;1737433;81;21547;-61
2022/10/21 00:05:19;;;;;;;4.75;2.00;;;;;;;4.87;76.68;101239.80;1751265;81;21150;-60
2022/10/21 00:07:50;;;;;;;3.80;2.15;;;;;;;4.85;76.82;101243.66;1768141;81;21181;-60
2022/10/21 00:10:22;;;;;;;4.10;2.30;;;;;;;4.85;76.91;101249.94;1767182;81;21276;-59
2022/10/21 00:12:52;;;;;;;4.50;2.40;;;;;;;4.82;77.01;101237.14;1767721;81;21129;-58
2022/10/21 00:15:22;;;;;;;4.58;2.62;;;;;;;4.78;77.12;101236.06;1768136;81;21098;-60
2022/10/21 00:17:54;;;;;;;3.20;2.33;;;;;;;4.75;77.20;101220.06;1765266;81;21149;-61
2022/10/21 00:20:23;;;;;;;4.45;2.52;;;;;;;4.73;77.25;101220.70;1759761;81;21213;-58
2022/10/21 00:22:55;;;;;;;4.85;2.35;;;;;;;4.70;77.20;101223.69;1697203;84;21563;-60
2022/10/21 00:25:24;;;;;;;4.95;2.47;;;;;;;4.68;77.23;101227.05;1747708;82;21197;-60
2022/10/21 00:27:56;;;;;;;6.25;2.30;;;;;;;4.69;77.24;101229.27;1761996;81;21173;-61
2022/10/21 00:30:26;;;;;;;5.10;2.60;;;;;;;4.66;77.18;101239.04;1737132;81;21564;-59
2022/10/21 00:32:57;;;;;;;4.67;2.40;;;;;;;4.63;77.25;101237.46;1757443;81;21624;-59
2022/10/21 00:35:33;;;;;;;3.92;2.33;;;;;;;4.60;77.30;101244.52;1732002;82;21170;-60
2022/10/21 00:38:02;;;;;;;6.95;2.35;;;;;;;4.56;77.32;101243.09;1729637;83;21542;-60
2022/10/21 00:40:32;;;;;;;5.28;2.52;;;;;;;4.52;77.34;101250.25;1754995;81;21555;-59
2022/10/21 00:43:02;;;;;;;6.75;2.83;;;;;;;4.48;77.39;101246.95;1732085;83;21116;-60
2022/10/21 00:45:34;;;;;;;7.85;3.70;;;;;;;4.44;77.44;101245.02;1732213;82;21159;-60
2022/10/21 00:48:12;;;;;;;7.40;4.28;;;;;;;4.43;77.55;101238.37;1732018;81;21159;-61
2022/10/21 00:50:53;;;;;;;9.68;4.12;;;;;;;4.42;77.56;101244.79;1732074;81;21120;-59
2022/10/21 00:53:23;;;;;;;10.40;4.58;;;;;;;4.39;77.52;101245.92;1732782;81;21175;-60
2022/10/21 00:55:56;;;;;;;13.68;6.12;;;;;;;4.33;77.55;101253.75;1732103;83;21094;-60
2022/10/21 00:58:29;;;;;;;21.62;7.67;;;;;;;4.28;77.67;101253.30;1732497;81;21114;-60
2022/10/21 01:01:02;;;;;;;13.50;6.08;;;;;;;4.24;77.56;101254.57;1717588;83;21150;-59
2022/10/21 01:03:35;;;;;;;13.38;5.78;;;;;;;4.12;77.54;101254.66;1732470;83;21135;-59
2022/10/21 01:06:08;;;;;;;13.38;5.15;;;;;;;4.04;77.69;101249.05;1733095;83;21134;-61
2022/10/21 01:08:38;;;;;;;12.70;4.92;;;;;;;3.94;77.82;101241.37;1733538;83;21099;-60
2022/10/21 01:11:12;;;;;;;10.23;4.33;;;;;;;3.88;78.00;101241.02;1733296;83;21154;-61
2022/10/21 01:14:29;;;;;;;5.92;2.92;;;;;;;3.83;78.17;101243.63;1732942;81;21110;-60
2022/10/21 01:17:20;;;;;;;6.47;2.60;;;;;;;3.79;78.29;101238.61;1760082;81;21097;-60
2022/10/21 01:20:24;;;;;;;4.62;2.30;;;;;;;3.73;78.41;101241.36;1731504;81;21118;-60
2022/10/21 01:23:32;;;;;;;4.47;2.72;;;;;;;3.67;78.58;101245.09;1737689;82;21182;-59
2022/10/21 01:26:57;;;;;;;4.33;2.50;;;;;;;3.62;78.89;101233.80;1737926;81;21187;-60
2022/10/21 01:29:53;;;;;;;6.50;3.10;;;;;;;3.57;79.01;101227.41;1737657;82;21214;-60
2022/10/21 01:32:46;;;;;;;9.38;3.15;;;;;;;3.51;79.26;101241.49;1737635;82;21139;-61
2022/10/21 01:35:36;;;;;;;10.23;3.98;;;;;;;3.48;79.33;101241.26;1739713;81;21227;-60
2022/10/21 01:38:24;;;;;;;10.68;3.72;;;;;;;3.46;79.33;101245.95;1645968;82;21174;-59
2022/10/21 01:41:16;;;;;;;10.75;3.67;;;;;;;3.42;79.51;101263.45;1765408;81;21130;-61
2022/10/21 01:43:56;;;;;;;10.78;3.95;;;;;;;3.36;79.55;101261.77;1767547;81;21179;-61
2022/10/21 01:46:32;;;;;;;11.50;4.42;;;;;;;3.28;79.80;101273.25;1767027;81;21185;-60
2022/10/21 01:49:08;;;;;;;7.92;4.33;;;;;;;3.28;80.07;101266.97;1767932;81;21173;-59
2022/10/21 01:51:38;;;;;;;9.23;3.80;;;;;;;3.29;80.14;101277.67;1767782;81;21126;-60
2022/10/21 01:54:15;;;;;;;8.45;3.70;;;;;;;3.31;80.04;101266.22;1704036;82;21163;-59
2022/10/21 01:56:46;;;;;;;7.10;3.25;;;;;;;3.33;79.92;101271.02;1737685;81;21140;-59
2022/10/21 01:59:15;;;;;;;7.60;2.95;;;;;;;3.31;79.75;101269.42;1709182;82;21163;-60
2022/10/21 02:01:46;;;;;;;6.92;4.15;;;;;;;3.27;79.76;101272.88;1737829;82;21124;-59
2022/10/21 02:04:17;;;;;;;7.28;4.90;;;;;;;3.19;79.72;101270.79;1737340;82;21123;-60
2022/10/21 02:06:49;;;;;;;7.10;5.00;;;;;;;3.13;79.80;101278.08;1751547;81;21106;-60
2022/10/21 02:09:20;;;;;;;7.17;4.00;;;;;;;3.13;79.95;101278.56;1767725;81;21086;-60
2022/10/21 02:11:51;;;;;;;5.65;3.92;;;;;;;3.12;79.98;101275.49;1768048;81;21130;-60
2022/10/21 02:14:37;;;;;;;6.92;3.47;;;;;;;3.10;79.96;101282.89;1768434;81;21118;-59
2022/10/21 02:17:12;;;;;;;4.58;2.92;;;;;;;3.05;80.05;101289.17;1726434;82;21165;-61
2022/10/21 02:19:42;;;;;;;5.47;2.40;;;;;;;3.02;80.13;101288.94;1708766;82;21136;-60
2022/10/21 02:22:16;;;;;;;5.17;2.58;;;;;;;2.99;80.19;101285.13;1740443;82;21141;-60
2022/10/21 02:25:04;;;;;;;4.92;2.35;;;;;;;2.97;80.13;101285.75;1740298;82;21129;-60
2022/10/21 02:27:36;;;;;;;4.53;2.47;;;;;;;2.94;80.16;101281.95;1678978;85;21643;-60
2022/10/21 02:30:07;;;;;;;3.55;2.10;;;;;;;2.89;80.31;101288.73;1679501;84;21163;-60
2022/10/21 02:32:48;;;;;;;3.92;2.25;;;;;;;2.86;80.49;101285.29;1679222;85;21231;-59
2022/10/21 02:35:33;;;;;;;3.30;2.20;;;;;;;2.87;80.54;101284.80;1679696;84;21626;-60
2022/10/21 02:38:28;;;;;;;3.60;2.37;;;;;;;2.84;80.56;101281.84;1695301;84;21187;-59
2022/10/21 02:41:04;;;;;;;4.87;1.90;;;;;;;2.80;80.55;101282.23;1705919;84;21151;-59
2022/10/21 02:43:52;;;;;;;3.27;2.30;;;;;;;2.76;80.70;101288.39;1647893;87;21151;-59
2022/10/21 02:46:21;;;;;;;7.05;2.95;;;;;;;2.76;80.83;101293.80;1670918;85;21137;-59
2022/10/21 02:48:52;;;;;;;5.58;2.60;;;;;;;2.72;80.87;101288.27;1678997;85;21588;-60
2022/10/21 02:51:21;;;;;;;6.37;2.70;;;;;;;2.64;80.85;101288.53;1634969;85;21145;-59
2022/10/21 02:53:50;;;;;;;5.37;2.72;;;;;;;2.54;80.98;101300.06;1665528;85;21137;-59
2022/10/21 02:56:20;;;;;;;7.15;3.02;;;;;;;2.52;81.25;101306.58;1651527;87;21604;-62
2022/10/21 02:58:50;;;;;;;3.62;2.45;;;;;;;2.53;81.45;101303.75;1652783;85;21169;-61
2022/10/21 03:01:19;;;;;;;4.65;2.85;;;;;;;2.59;81.50;101304.24;1707658;81;21125;-59
2022/10/21 03:03:49;;;;;;;4.67;2.77;;;;;;;2.62;81.49;101298.61;1770751;81;21518;-60
2022/10/21 03:06:19;;;;;;;3.02;2.30;;;;;;;2.62;81.42;101302.18;1770917;81;21185;-57
2022/10/21 03:08:48;;;;;;;7.37;2.80;;;;;;;2.57;81.32;101297.60;1770714;81;21153;-59
2022/10/21 03:11:19;;;;;;;5.40;2.85;;;;;;;2.57;81.37;101297.60;1771153;81;21165;-60
2022/10/21 03:13:48;;;;;;;3.85;2.10;;;;;;;2.57;81.32;101304.37;1770135;81;21144;-60
2022/10/21 03:16:18;;;;;;;4.12;2.20;;;;;;;2.52;81.34;101300.68;1770703;81;21125;-59
2022/10/21 03:18:48;;;;;;;5.03;2.40;;;;;;;2.53;81.36;101308.30;1770860;81;21126;-59
2022/10/21 03:21:19;;;;;;;5.45;2.40;;;;;;;2.50;81.33;101305.36;1757548;81;21543;-58
2022/10/21 03:23:49;;;;;;;3.52;2.27;;;;;;;2.48;81.25;101310.52;1747959;82;21538;-60
2022/10/21 03:26:19;;;;;;;5.62;2.33;;;;;;;2.46;81.26;101297.61;1748119;82;21226;-58
2022/10/21 03:28:49;;;;;;;4.65;2.65;;;;;;;2.46;81.30;101298.97;1748173;82;21167;-59
2022/10/21 03:31:19;;;;;;;5.50;3.52;;;;;;;2.47;81.25;101296.62;1748023;82;21138;-60
2022/10/21 03:33:49;;;;;;;8.50;3.37;;;;;;;2.46;81.23;101298.47;1753362;81;21573;-59
2022/10/21 03:36:20;;;;;;;6.90;3.45;;;;;;;2.43;81.19;101296.02;1759968;81;21174;-60
2022/10/21 03:38:49;;;;;;;6.40;3.75;;;;;;;2.39;81.26;101293.19;1758072;81;21158;-61
2022/10/21 03:41:18;;;;;;;5.55;3.10;;;;;;;2.38;81.33;101292.81;1760204;81;21158;-58
2022/10/21 03:43:48;;;;;;;10.50;4.72;;;;;;;2.37;81.41;101295.64;1760230;81;21186;-60
2022/10/21 03:46:18;;;;;;;11.15;4.60;;;;;;;2.34;81.53;101293.19;1760440;81;21592;-60
2022/10/21 03:48:47;;;;;;;11.63;5.37;;;;;;;2.31;81.46;101301.55;1760134;81;21162;-59
2022/10/21 03:51:17;;;;;;;11.08;4.83;;;;;;;2.27;81.49;101298.23;1751614;81;21169;-59
2022/10/21 03:53:47;;;;;;;8.48;4.35;;;;;;;2.23;81.55;101291.34;1750143;81;21138;-60
2022/10/21 03:56:17;;;;;;;12.00;4.83;;;;;;;2.22;81.58;101292.33;1760420;81;21118;-61
2022/10/21 03:58:47;;;;;;;11.28;4.62;;;;;;;2.20;81.48;101287.04;1760166;81;21111;-59
2022/10/21 04:01:19;;;;;;;10.82;5.33;;;;;;;2.15;81.39;101283.84;1759452;81;21115;-58
2022/10/21 04:03:48;;;;;;;10.93;5.05;;;;;;;2.14;81.40;101288.88;1760226;81;21126;-61
2022/10/21 04:06:18;;;;;;;12.15;5.97;;;;;;;2.14;81.49;101295.64;1730264;83;21146;-60
2022/10/21 04:08:50;;;;;;;11.57;6.53;;;;;;;2.14;81.41;101295.64;1757161;81;21153;-60
2022/10/21 04:11:20;;;;;;;15.10;6.85;;;;;;;2.12;81.35;101297.60;1730099;81;21533;-60
2022/10/21 04:13:49;;;;;;;15.20;7.17;;;;;;;2.09;81.38;101293.80;1730735;81;21112;-61
2022/10/21 04:16:20;;;;;;;13.58;7.22;;;;;;;2.08;81.43;101297.97;1730139;83;21518;-60
2022/10/21 04:18:49;;;;;;;15.45;7.20;;;;;;;2.05;81.44;101297.72;1730255;83;21539;-60
2022/10/21 04:21:19;;;;;;;11.90;6.53;;;;;;;2.06;81.44;101299.93;1739830;80;21098;-59
2022/10/21 04:23:50;;;;;;;11.93;6.58;;;;;;;2.05;81.43;101301.77;1724662;82;21108;-60
2022/10/21 04:26:20;;;;;;;12.05;7.05;;;;;;;2.05;81.47;101299.07;1759750;81;21147;-59
2022/10/21 04:28:50;;;;;;;18.52;8.45;;;;;;;2.06;81.53;101308.04;1746585;81;21140;-61
2022/10/21 04:31:19;;;;;;;14.87;7.90;;;;;;;2.06;81.50;101309.39;1761505;81;21115;-61
2022/10/21 04:33:50;;;;;;;15.90;8.50;;;;;;;2.03;81.54;101305.09;1761769;81;21135;-59
2022/10/21 04:36:21;;;;;;;14.93;7.67;;;;;;;2.02;81.51;101310.12;1761287;81;21155;-60
2022/10/21 04:38:51;;;;;;;11.83;6.87;;;;;;;2.02;81.52;101311.97;1761341;81;21147;-59
2022/10/21 04:41:21;;;;;;;17.77;7.17;;;;;;;2.01;81.44;101312.95;1751765;81;21098;-59
2022/10/21 04:43:50;;;;;;;15.55;8.33;;;;;;;1.98;81.42;101312.70;1758428;81;21151;-61
2022/10/21 04:46:20;;;;;;;16.57;8.40;;;;;;;1.94;81.45;101311.19;1786781;80;21170;-59
2022/10/21 04:48:51;;;;;;;12.82;7.30;;;;;;;1.90;81.45;101314.61;1764400;80;21070;-61
2022/10/21 04:51:21;;;;;;;13.68;8.15;;;;;;;1.88;81.47;101317.06;1755965;82;21125;-61
2022/10/21 04:53:51;;;;;;;22.17;8.48;;;;;;;1.83;81.53;101316.08;1755717;81;21133;-61
2022/10/21 04:56:20;;;;;;;20.05;8.10;;;;;;;1.86;81.61;101321.23;1755581;82;21108;-60
2022/10/21 04:58:50;;;;;;;14.45;8.60;;;;;;;1.87;81.59;101327.50;1755820;82;21153;-60
2022/10/21 05:01:20;;;;;;;19.67;9.10;;;;;;;1.88;81.70;101324.69;1755841;82;21125;-61
2022/10/21 05:03:51;;;;;;;13.90;8.55;;;;;;;1.93;81.87;101329.73;1764570;80;21102;-62
2022/10/21 05:06:21;;;;;;;16.67;8.65;;;;;;;1.97;81.94;101322.28;1788469;80;21125;-62
2022/10/21 05:08:52;;;;;;;14.55;7.75;;;;;;;1.99;82.02;101323.88;1787943;80;21162;-61
2022/10/21 05:11:22;;;;;;;11.45;6.17;;;;;;;2.04;82.01;101315.41;1786979;80;21130;-61
2022/10/21 05:13:53;;;;;;;13.40;7.00;;;;;;;2.07;82.03;101312.47;1786728;80;21600;-61
2022/10/21 05:16:25;;;;;;;12.25;7.15;;;;;;;2.09;82.16;101315.41;1786819;80;21147;-60
2022/10/21 05:18:55;;;;;;;12.47;6.78;;;;;;;2.15;82.22;101316.77;1765913;80;21112;-60
2022/10/21 05:21:27;;;;;;;14.10;6.83;;;;;;;2.19;82.21;101314.20;1754630;82;21150;-61
2022/10/21 05:23:58;;;;;;;18.00;7.08;;;;;;;2.22;82.23;101316.16;1742244;80;21613;-60
2022/10/21 05:26:29;;;;;;;17.35;6.12;;;;;;;2.26;82.25;101316.78;1737494;80;21215;-59
2022/10/21 05:28:59;;;;;;;10.30;6.20;;;;;;;2.33;82.24;101321.22;1737063;82;21572;-59
2022/10/21 05:31:30;;;;;;;16.10;6.33;;;;;;;2.39;82.25;101327.48;1737053;82;21647;-61
2022/10/21 05:34:01;;;;;;;15.25;7.22;;;;;;;2.42;82.20;101319.13;1737173;82;21181;-61
2022/10/21 05:36:31;;;;;;;11.10;6.05;;;;;;;2.45;82.20;101322.45;1737226;82;21189;-60
2022/10/21 05:39:00;;;;;;;15.65;6.40;;;;;;;2.47;82.27;101321.83;1740340;80;21576;-60
2022/10/21 05:41:31;;;;;;;18.70;5.78;;;;;;;2.55;82.32;101330.19;1760521;80;21122;-62
2022/10/21 05:44:02;;;;;;;12.75;5.58;;;;;;;2.64;82.26;101324.56;1752583;81;21600;-61
2022/10/21 05:46:32;;;;;;;13.85;7.03;;;;;;;2.71;82.16;101331.69;1752873;81;21173;-61
2022/10/21 05:49:03;;;;;;;13.55;6.58;;;;;;;2.74;82.12;101329.59;1752674;81;21170;-61
2022/10/21 05:51:34;;;;;;;14.45;7.87;;;;;;;2.79;82.10;101334.14;1752860;82;21134;-60
2022/10/21 05:54:04;;;;;;;20.45;7.00;;;;;;;2.83;82.05;101335.61;1752746;81;21196;-61
2022/10/21 05:56:35;;;;;;;14.40;5.75;;;;;;;2.88;82.05;101337.94;1753360;80;21181;-60
2022/10/21 05:59:07;;;;;;;14.40;6.87;;;;;;;2.95;82.05;101345.06;1783731;80;21111;-60
2022/10/21 06:01:40;;;;;;;17.82;7.33;;;;;;;3.01;82.07;101341.86;1782715;80;21660;-60
2022/10/21 06:04:10;;;;;;;16.20;6.65;;;;;;;3.08;82.04;101333.59;1764880;81;21146;-60
2022/10/21 06:06:42;;;;;;;13.75;6.90;;;;;;;3.15;82.01;101341.58;1765714;81;21115;-60
2022/10/21 06:09:13;;;;;;;18.27;7.55;;;;;;;3.22;81.99;101338.73;1765630;81;21115;-61
2022/10/21 06:11:44;;;;;;;19.30;7.22;;;;;;;3.30;81.92;101340.34;1715206;83;21126;-61
2022/10/21 06:14:15;;;;;;;14.45;6.70;;;;;;;3.36;81.81;101338.47;1719560;83;21161;-61
2022/10/21 06:16:47;;;;;;;14.78;6.33;;;;;;;3.42;81.74;101339.31;1719434;83;21582;-61
2022/10/21 06:19:19;;;;;;;15.45;6.90;;;;;;;3.52;81.62;101335.83;1719463;83;21562;-61
2022/10/21 06:21:49;;;;;;;15.15;6.78;;;;;;;3.60;81.45;101339.61;1718251;83;21138;-61
2022/10/21 06:24:21;;;;;;;17.62;6.83;;;;;;;3.67;81.31;101339.95;1695355;83;21177;-61
2022/10/21 06:26:51;;;;;;;16.30;7.20;;;;;;;3.73;81.25;101340.78;1719367;83;21414;-63
2022/10/21 06:29:22;;;;;;;17.35;7.92;;;;;;;3.78;81.17;101336.69;1719373;83;21562;-61
2022/10/21 06:31:52;;;;;;;12.18;6.87;;;;;;;3.84;81.10;101338.02;1719370;83;21102;-61
2022/10/21 06:34:21;;;;;;;18.82;7.72;;;;;;;3.94;80.91;101340.33;1719366;83;21234;-61
2022/10/21 06:36:52;;;;;;;14.93;8.23;;;;;;;4.01;80.70;101340.66;1765656;80;21098;-61
2022/10/21 06:39:23;;;;;;;16.73;7.95;;;;;;;4.08;80.63;101348.13;1752624;80;21219;-63
2022/10/21 06:41:53;;;;;;;14.58;8.98;;;;;;;4.18;80.53;101345.48;1738023;80;21164;-61
2022/10/21 06:44:30;;;;;;;18.98;9.58;;;;;;;4.27;80.26;101351.95;1731052;82;21611;-60
2022/10/21 06:47:01;;;;;;;18.48;8.38;;;;;;;4.32;79.98;101349.70;1737433;80;21611;-61
2022/10/21 06:49:31;;;;;;;20.10;9.15;;;;;;;4.39;79.84;101346.31;1737195;82;21189;-60
2022/10/21 06:52:01;;;;;;;12.25;7.60;;;;;;;4.49;79.64;101345.01;1736876;82;21142;-62
2022/10/21 06:54:31;;;;;;;16.42;8.50;;;;;;;4.60;79.41;101354.95;1737020;82;21604;-61
2022/10/21 06:57:01;;;;;;;18.32;9.35;;;;;;;4.67;79.11;101351.55;1708401;82;21232;-61
2022/10/21 06:59:32;;;;;;;18.52;8.80;;;;;;;4.77;78.88;101357.88;1685591;82;21623;-61
2022/10/21 07:02:02;;;;;;;15.13;8.35;;;;;;;4.87;78.64;101355.70;1740793;80;21162;-61
2022/10/21 07:04:32;;;;;;;14.93;8.35;;;;;;;4.94;78.48;101356.37;1737042;82;21177;-60
2022/10/21 07:07:03;;;;;;;19.67;8.88;;;;;;;5.01;78.20;101352.60;1737044;82;21140;-63
2022/10/21 07:09:35;;;;;;;15.23;8.08;;;;;;;5.06;77.89;101358.48;1743228;80;21187;-62
2022/10/21 07:12:04;;;;;;;15.28;7.75;;;;;;;5.13;77.80;101358.78;1737585;81;21147;-62
2022/10/21 07:14:34;;;;;;;16.25;7.70;;;;;;;5.18;77.59;101350.57;1737305;82;21179;-61
2022/10/21 07:17:05;;;;;;;15.60;8.05;;;;;;;5.26;77.44;101365.70;1686150;83;21145;-61
2022/10/21 07:19:36;;;;;;;14.93;6.78;;;;;;;5.35;77.29;101359.43;1686306;84;21192;-61
2022/10/21 07:22:05;;;;;;;17.77;7.62;;;;;;;5.45;77.05;101359.94;1691978;83;21121;-62
2022/10/21 07:24:35;;;;;;;20.77;7.25;;;;;;;5.51;76.80;101364.31;1731874;83;21626;-62
2022/10/21 07:27:05;;;;;;;15.58;7.55;;;;;;;5.60;76.64;101361.25;1726755;83;21591;-61
2022/10/21 07:29:38;;;;;;;18.85;7.75;;;;;;;5.70;76.46;101360.75;1727308;83;21248;-61
2022/10/21 07:32:08;;;;;;;12.88;7.47;;;;;;;5.77;76.22;101363.76;1727741;83;21166;-60
2022/10/21 07:34:39;;;;;;;19.90;8.45;;;;;;;5.85;75.99;101360.70;1742636;80;21106;-61
2022/10/21 07:37:09;;;;;;;18.02;8.33;;;;;;;5.96;75.89;101360.59;1787080;80;21234;-61
2022/10/21 07:39:40;;;;;;;25.12;8.10;;;;;;;6.06;75.59;101357.00;1775374;80;21129;-62
2022/10/21 07:42:11;;;;;;;22.27;8.73;;;;;;;6.14;75.13;101355.77;1769525;80;21113;-61
2022/10/21 07:44:41;;;;;;;20.37;7.58;;;;;;;6.22;74.74;101357.27;1763075;80;21733;-63
2022/10/21 07:47:11;;;;;;;17.40;8.55;;;;;;;6.28;74.50;101360.26;1757570;80;21190;-62
2022/10/21 07:49:40;;;;;;;25.27;8.70;;;;;;;6.35;74.17;101360.53;1771893;80;21154;-60
2022/10/21 07:52:10;;;;;;;15.32;7.58;;;;;;;6.42;73.85;101364.38;1781994;80;21103;-62
2022/10/21 07:54:40;;;;;;;15.90;6.47;;;;;;;6.52;73.45;101365.23;1787556;80;21118;-62
2022/10/21 07:57:11;;;;;;;15.28;6.58;;;;;;;6.61;72.90;101362.99;1763752;80;21157;-63
2022/10/21 07:59:41;;;;;;;16.90;6.58;;;;;;;6.68;71.52;101362.75;1761332;80;21151;-62
2022/10/21 08:02:13;;;;;;;15.35;6.97;;;;;;;6.72;70.72;101365.17;1725459;83;21104;-62
2022/10/21 08:04:44;;;;;;;15.20;6.35;;;;;;;6.77;70.44;101371.03;1752945;81;21141;-61
2022/10/21 08:07:14;;;;;;;17.17;7.08;;;;;;;6.84;70.18;101362.62;1781297;80;21699;-62
2022/10/21 08:09:45;;;;;;;14.85;6.67;;;;;;;6.90;69.85;101372.91;1781240;80;21545;-62
2022/10/21 08:12:14;;;;;;;14.13;6.30;;;;;;;7.00;69.46;101371.00;1781470;80;21091;-61
2022/10/21 08:14:46;;;;;;;16.05;8.03;;;;;;;7.08;69.32;101366.16;1759976;80;21130;-60
2022/10/21 08:17:16;;;;;;;20.92;8.70;;;;;;;7.15;69.02;101364.54;1756839;80;21132;-62
2022/10/21 08:19:47;;;;;;;19.75;8.43;;;;;;;7.22;68.78;101364.31;1695884;84;21177;-62
2022/10/21 08:22:16;;;;;;;16.45;7.50;;;;;;;7.30;68.62;101367.14;1716250;83;21162;-64
2022/10/21 08:24:46;;;;;;;14.03;7.17;;;;;;;7.37;68.44;101361.42;1724177;83;21162;-62
2022/10/21 08:27:16;;;;;;;14.33;7.10;;;;;;;7.43;67.99;101367.62;1724122;83;21138;-64
2022/10/21 08:29:48;;;;;;;13.28;6.47;;;;;;;7.49;67.85;101364.78;1588644;90;21216;-60
2022/10/21 08:32:17;;;;;;;13.48;6.40;;;;;;;7.52;67.56;101355.79;1588699;90;21153;-63
2022/10/21 08:34:47;;;;;;;13.90;7.00;;;;;;;7.56;67.47;101365.37;1588712;90;21211;-62
2022/10/21 08:37:18;;;;;;;12.65;5.67;;;;;;;7.55;67.06;101358.21;1573718;89;21161;-63
2022/10/21 08:39:51;;;;;;;10.25;4.80;;;;;;;7.50;66.42;101359.17;1581085;89;21204;-61
2022/10/21 08:42:22;;;;;;;7.25;4.17;;;;;;;7.44;66.03;101354.34;1618213;88;21212;-61
2022/10/21 08:45:01;;;;;;;9.38;4.45;;;;;;;7.38;65.46;101350.87;1619136;88;21177;-62
2022/10/21 08:47:44;;;;;;;8.83;4.40;;;;;;;7.36;65.50;101358.85;1664369;80;21118;-60
2022/10/21 08:50:16;;;;;;;8.08;3.75;;;;;;;7.37;65.66;101360.06;1786358;80;21174;-61
2022/10/21 08:52:59;;;;;;;10.70;4.25;;;;;;;7.44;65.57;101363.03;1786633;80;21165;-61
2022/10/21 08:55:38;;;;;;;7.45;3.37;;;;;;;7.54;65.39;101368.77;1758806;81;21142;-61
2022/10/21 08:58:17;;;;;;;12.82;4.00;;;;;;;7.61;65.20;101362.19;1751736;81;21166;-63
2022/10/21 09:01:01;;;;;;;10.88;4.28;;;;;;;7.67;64.26;101361.56;1751095;82;21186;-64
2022/10/21 09:04:18;;;;;;;11.45;7.65;;;;;;;7.74;64.43;101358.56;1847638;77;22266;-61
2022/10/21 09:07:10;;;;;;;10.32;5.10;;;;;;;7.72;64.27;101363.83;1717093;82;21111;-61
2022/10/21 09:09:54;;;;;;;14.75;5.53;;;;;;;7.76;64.19;101361.14;1785102;79;21150;-61
2022/10/21 09:13:00;;;;;;;9.05;4.28;;;;;;;7.81;63.99;101357.47;1801792;79;21534;-61
2022/10/21 09:16:00;;;;;;;13.08;4.78;;;;;;;7.89;63.82;101361.63;1683307;85;21114;-62
2022/10/21 09:19:07;;;;;;;9.73;4.72;;;;;;;7.94;63.59;101355.20;1732058;82;21163;-62
2022/10/21 09:22:06;;;;;;;9.83;4.35;;;;;;;7.99;63.30;101350.62;1664433;82;21634;-61
2022/10/21 09:24:59;;;;;;;7.97;4.10;;;;;;;8.00;62.50;101356.44;1735354;82;21196;-60
2022/10/21 09:27:30;;;;;;;9.75;4.17;;;;;;;8.03;62.47;101354.76;1743896;82;22102;-62
2022/10/21 09:30:02;;;;;;;8.13;3.50;;;;;;;8.04;62.20;101357.33;1746559;82;21251;-62
2022/10/21 09:32:35;;;;;;;5.97;3.58;;;;;;;8.06;62.46;101349.84;1736721;82;21129;-62
2022/10/21 09:35:27;;;;;;;7.05;3.55;;;;;;;8.07;62.03;101352.06;1773695;80;21182;-63
2022/10/21 09:38:19;;;;;;;7.15;3.67;;;;;;;8.07;62.37;101350.19;1737980;82;21563;-61
2022/10/21 09:40:50;;;;;;;9.73;3.65;;;;;;;8.09;62.19;101351.39;1774745;80;21564;-62
2022/10/21 09:43:24;;;;;;;8.78;3.67;;;;;;;8.09;61.94;101355.48;1717021;82;21582;-61
2022/10/21 09:45:53;;;;;;;8.30;3.98;;;;;;;8.10;61.46;101354.47;1708494;83;21231;-61
2022/10/21 09:48:47;;;;;;;10.85;4.10;;;;;;;8.08;61.34;101352.41;1774950;80;21115;-61
2022/10/21 09:51:30;;;;;;;8.70;4.12;;;;;;;8.08;61.52;101341.49;1734527;82;21159;-61
2022/10/21 09:54:10;;;;;;;10.03;4.37;;;;;;;8.10;62.02;101343.55;1775300;79;21178;-61
2022/10/21 09:56:57;;;;;;;10.35;4.37;;;;;;;8.13;61.81;101341.37;1771226;80;21155;-61
2022/10/21 09:59:27;;;;;;;8.15;4.10;;;;;;;8.17;61.87;101342.77;1771042;80;21507;-62
2022/10/21 10:02:05;;;;;;;8.73;3.70;;;;;;;8.23;61.79;101334.44;1774560;80;21585;-62
2022/10/21 10:04:36;;;;;;;5.40;3.42;;;;;;;8.27;61.81;101331.73;1749398;80;21166;-61
2022/10/21 10:07:33;;;;;;;9.73;3.47;;;;;;;8.33;61.68;101331.61;1741868;80;21239;-62
2022/10/21 10:10:07;;;;;;;7.87;3.80;;;;;;;8.33;61.20;101333.86;1773999;80;21166;-61
2022/10/21 10:12:36;;;;;;;5.70;3.35;;;;;;;8.33;61.37;101328.87;1771617;80;21142;-62
2022/10/21 10:15:14;;;;;;;5.90;2.67;;;;;;;8.37;61.27;101310.67;1770890;80;21135;-61
2022/10/21 10:17:45;;;;;;;7.78;3.08;;;;;;;8.39;60.84;101312.73;1768438;81;21138;-60
2022/10/21 10:20:19;;;;;;;7.12;3.08;;;;;;;8.39;60.90;101314.61;1773369;80;21143;-61
2022/10/21 10:23:04;;;;;;;6.03;3.12;;;;;;;8.42;60.61;101314.29;1767110;81;21143;-62
2022/10/21 10:25:38;;;;;;;7.15;2.80;;;;;;;8.43;60.45;101310.03;1772650;80;21119;-61
2022/10/21 10:28:14;;;;;;;7.17;3.72;;;;;;;8.48;60.50;101315.89;1715971;83;21097;-61
2022/10/21 10:30:47;;;;;;;7.20;3.77;;;;;;;8.53;60.42;101316.27;1711948;83;21132;-63
2022/10/21 10:33:23;;;;;;;10.25;3.80;;;;;;;8.55;60.25;101307.41;1718158;83;21545;-62
2022/10/21 10:36:02;;;;;;;8.15;3.35;;;;;;;8.59;60.06;101313.39;1718386;83;21178;-63
2022/10/21 10:38:47;;;;;;;6.97;3.55;;;;;;;8.63;60.05;101309.83;1717215;83;21223;-60
2022/10/21 10:41:17;;;;;;;6.12;2.80;;;;;;;8.68;60.09;101312.93;1692583;83;21152;-63
2022/10/21 10:43:52;;;;;;;9.00;2.85;;;;;;;8.70;59.37;101313.11;1712580;82;21109;-60
2022/10/21 10:46:33;;;;;;;8.98;3.17;;;;;;;8.70;59.27;101310.38;1748869;79;21221;-61
2022/10/21 10:49:22;;;;;;;5.42;3.10;;;;;;;8.72;59.37;101308.84;1729183;83;21186;-62
2022/10/21 10:52:10;;;;;;;8.40;3.60;;;;;;;8.71;58.95;101306.62;1801714;79;21151;-61
2022/10/21 10:54:42;;;;;;;10.08;3.30;;;;;;;8.73;59.00;101295.53;1760423;81;21119;-62
2022/10/21 10:57:22;;;;;;;6.55;3.25;;;;;;;8.76;58.89;101286.50;1688003;85;21130;-61
2022/10/21 11:00:08;;;;;;;7.33;3.20;;;;;;;8.80;58.85;101279.68;1686155;85;21131;-61
2022/10/21 11:02:50;;;;;;;11.28;3.45;;;;;;;8.88;58.54;101276.12;1682688;85;21151;-62
2022/10/21 11:05:45;;;;;;;5.28;2.77;;;;;;;8.91;58.23;101264.86;1748932;82;21660;-60
2022/10/21 11:08:35;;;;;;;5.20;2.80;;;;;;;8.93;58.16;101267.42;1629338;88;21554;-61
2022/10/21 11:11:15;;;;;;;6.28;3.33;;;;;;;8.94;58.14;101269.14;1653690;86;21154;-62
2022/10/21 11:13:46;;;;;;;8.20;3.17;;;;;;;9.00;58.04;101265.74;1712541;83;21159;-61
2022/10/21 11:16:38;;;;;;;8.53;3.00;;;;;;;9.01;57.66;101261.48;1718149;83;21134;-62
2022/10/21 11:19:29;;;;;;;5.03;2.65;;;;;;;8.98;57.36;101254.97;1630481;88;21194;-62
2022/10/21 11:22:16;;;;;;;;;;;;;;;8.94;57.68;101255.47;1652611;86;21160;-62
2022/10/21 11:24:56;;;;;;;4.28;2.10;;;;;;;8.93;57.32;101259.23;1649894;87;20193;-64
2022/10/21 11:28:09;;;;;;;7.22;2.30;;;;;;;8.90;56.99;101253.58;1701653;84;21589;-62
2022/10/21 11:31:08;;;;;;;6.15;2.95;;;;;;;8.91;56.87;101247.09;1707136;84;21130;-62
2022/10/21 11:33:56;;;;;;;4.50;2.40;;;;;;;8.94;56.71;101246.77;1707662;84;21181;-61
2022/10/21 11:36:39;;;;;;;7.08;2.92;;;;;;;8.93;56.29;101233.27;1706436;84;21189;-61
2022/10/21 11:39:35;;;;;;;5.62;2.60;;;;;;;8.92;56.62;101226.09;1706402;84;21161;-60
2022/10/21 11:42:15;;;;;;;6.60;2.77;;;;;;;8.93;56.13;101220.45;1717577;83;21195;-61
2022/10/21 11:45:19;;;;;;;5.35;2.80;;;;;;;8.93;56.60;101220.97;1799588;79;21099;-60
2022/10/21 11:47:57;;;;;;;4.25;2.25;;;;;;;8.94;56.30;101220.80;1735470;82;21154;-62
2022/10/21 11:50:55;;;;;;;6.12;1.72;;;;;;;8.96;56.23;101220.63;1805546;79;21124;-63
2022/10/21 11:53:49;;;;;;;3.02;1.65;;;;;;;8.94;55.56;101222.67;1732698;82;21187;-62
2022/10/21 11:56:46;;;;;;;4.10;1.72;;;;;;;8.94;55.29;101217.20;1758716;80;21154;-62
2022/10/21 11:59:47;;;;;;;2.98;1.50;;;;;;;8.92;54.93;101224.72;1772109;80;21139;-61
2022/10/21 12:02:43;;;;;;;2.35;1.20;;;;;;;8.90;54.43;101233.09;1768606;80;21111;-62
2022/10/21 12:05:27;;;;;;;5.72;2.20;;;;;;;8.86;53.78;101230.34;1708087;83;21240;-62
2022/10/21 12:08:17;;;;;;;5.37;2.35;;;;;;;8.82;54.20;101220.77;1774048;80;21119;-61